sensor_id;sensor_type;location;lat;lon;timestamp;P1;durP1;ratioP1;P2;durP2;ratioP2
66966;SDS011;53900;51.468;-2.586;2022-07-03T00:01:58;7.63;;;0.90;;
66966;SDS011;53900;51.468;-2.586;2022-07-03T00:04:23;6.65;;;1.80;;
66966;SDS011;53900;51.468;-2.586;2022-07-03T00:06:49;5.10;;;0.93;;
66966;SDS011;53900;51.468;-2.586;2022-07-03T00:09:14;7.22;;;1.38;;
66966;SDS011;53900;51.468;-2.586;2022-07-03T00:11:41;9.25;;;2.15;;
66966;SDS011;53900;51.468;-2.586;2022-07-03T00:14:07;5.80;;;2.20;;
66966;SDS011;53900;51.468;-2.586;2022-07-03T00:16:32;6.18;;;1.65;;
66966;SDS011;53900;51.468;-2.586;2022-07-03T00:18:58;8.27;;;1.40;;
66966;SDS011;53900;51.468;-2.586;2022-07-03T00:21:25;5.60;;;1.52;;
66966;SDS011;53900;51.468;-2.586;2022-07-03T00:24:00;7.65;;;1.80;;
66966;SDS011;53900;51.468;-2.586;2022-07-03T00:26:29;4.90;;;2.05;;
66966;SDS011;53900;51.468;-2.586;2022-07-03T00:28:56;7.18;;;1.65;;
66966;SDS011;53900;51.468;-2.586;2022-07-03T00:31:23;8.95;;;1.80;;
66966;SDS011;53900;51.468;-2.586;2022-07-03T00:33:49;7.32;;;1.75;;
66966;SDS011;53900;51.468;-2.586;2022-07-03T00:36:16;6.65;;;1.50;;
66966;SDS011;53900;51.468;-2.586;2022-07-03T00:38:42;6.97;;;2.00;;
66966;SDS011;53900;51.468;-2.586;2022-07-03T00:41:09;7.30;;;1.63;;
66966;SDS011;53900;51.468;-2.586;2022-07-03T00:43:49;7.65;;;1.73;;
66966;SDS011;53900;51.468;-2.586;2022-07-03T00:46:15;4.35;;;1.55;;
66966;SDS011;53900;51.468;-2.586;2022-07-03T00:48:42;10.32;;;1.98;;
66966;SDS011;53900;51.468;-2.586;2022-07-03T00:51:10;5.25;;;1.30;;
66966;SDS011;53900;51.468;-2.586;2022-07-03T00:53:40;5.43;;;1.42;;
66966;SDS011;53900;51.468;-2.586;2022-07-03T00:56:06;5.93;;;1.75;;
66966;SDS011;53900;51.468;-2.586;2022-07-03T00:58:33;6.68;;;1.77;;
66966;SDS011;53900;51.468;-2.586;2022-07-03T01:00:59;4.70;;;1.77;;
66966;SDS011;53900;51.468;-2.586;2022-07-03T01:03:26;6.97;;;1.40;;
66966;SDS011;53900;51.468;-2.586;2022-07-03T01:05:53;4.72;;;1.60;;
66966;SDS011;53900;51.468;-2.586;2022-07-03T01:08:34;8.73;;;2.03;;
66966;SDS011;53900;51.468;-2.586;2022-07-03T01:14:12;7.97;;;2.20;;
66966;SDS011;53900;51.468;-2.586;2022-07-03T01:16:41;6.82;;;1.70;;
66966;SDS011;53900;51.468;-2.586;2022-07-03T01:22:02;8.02;;;1.60;;
66966;SDS011;53900;51.468;-2.586;2022-07-03T01:24:39;9.23;;;1.95;;
66966;SDS011;53900;51.468;-2.586;2022-07-03T01:27:10;6.05;;;1.88;;
66966;SDS011;53900;51.468;-2.586;2022-07-03T01:29:43;8.57;;;2.08;;
66966;SDS011;53900;51.468;-2.586;2022-07-03T01:32:38;5.10;;;1.20;;
66966;SDS011;53900;51.468;-2.586;2022-07-03T01:35:07;5.30;;;1.30;;
66966;SDS011;53900;51.468;-2.586;2022-07-03T01:37:33;6.90;;;1.38;;
66966;SDS011;53900;51.468;-2.586;2022-07-03T01:40:00;6.32;;;1.80;;
66966;SDS011;53900;51.468;-2.586;2022-07-03T01:42:28;8.60;;;1.80;;
66966;SDS011;53900;51.468;-2.586;2022-07-03T01:44:54;8.90;;;1.55;;
66966;SDS011;53900;51.468;-2.586;2022-07-03T01:47:22;12.48;;;1.10;;
66966;SDS011;53900;51.468;-2.586;2022-07-03T01:49:49;6.25;;;1.40;;
66966;SDS011;53900;51.468;-2.586;2022-07-03T01:52:15;5.95;;;1.50;;
66966;SDS011;53900;51.468;-2.586;2022-07-03T01:54:42;6.00;;;1.25;;
66966;SDS011;53900;51.468;-2.586;2022-07-03T01:57:07;4.47;;;1.15;;
66966;SDS011;53900;51.468;-2.586;2022-07-03T01:59:33;5.25;;;1.83;;
66966;SDS011;53900;51.468;-2.586;2022-07-03T02:05:00;5.60;;;1.48;;
66966;SDS011;53900;51.468;-2.586;2022-07-03T02:10:33;5.50;;;1.23;;
66966;SDS011;53900;51.468;-2.586;2022-07-03T02:13:02;10.63;;;1.90;;
66966;SDS011;53900;51.468;-2.586;2022-07-03T02:15:33;4.25;;;1.23;;
66966;SDS011;53900;51.468;-2.586;2022-07-03T02:18:41;7.13;;;1.30;;
66966;SDS011;53900;51.468;-2.586;2022-07-03T02:20:50;8.30;;;2.47;;
66966;SDS011;53900;51.468;-2.586;2022-07-03T02:23:22;4.70;;;1.30;;
66966;SDS011;53900;51.468;-2.586;2022-07-03T02:25:51;9.57;;;1.08;;
66966;SDS011;53900;51.468;-2.586;2022-07-03T02:28:25;5.40;;;1.13;;
66966;SDS011;53900;51.468;-2.586;2022-07-03T02:31:01;8.70;;;1.30;;
66966;SDS011;53900;51.468;-2.586;2022-07-03T02:33:28;3.33;;;1.05;;
66966;SDS011;53900;51.468;-2.586;2022-07-03T02:35:56;10.35;;;1.10;;
66966;SDS011;53900;51.468;-2.586;2022-07-03T02:38:22;4.65;;;1.23;;
66966;SDS011;53900;51.468;-2.586;2022-07-03T02:43:38;2.05;;;0.98;;
66966;SDS011;53900;51.468;-2.586;2022-07-03T02:46:07;3.78;;;1.30;;
66966;SDS011;53900;51.468;-2.586;2022-07-03T02:48:56;5.20;;;0.98;;
66966;SDS011;53900;51.468;-2.586;2022-07-03T02:51:29;4.22;;;1.15;;
66966;SDS011;53900;51.468;-2.586;2022-07-03T02:54:09;8.48;;;2.22;;
66966;SDS011;53900;51.468;-2.586;2022-07-03T02:59:45;7.43;;;1.10;;
66966;SDS011;53900;51.468;-2.586;2022-07-03T03:05:09;4.47;;;1.33;;
66966;SDS011;53900;51.468;-2.586;2022-07-03T03:07:48;4.70;;;1.05;;
66966;SDS011;53900;51.468;-2.586;2022-07-03T03:10:36;5.00;;;1.10;;
66966;SDS011;53900;51.468;-2.586;2022-07-03T03:13:06;2.55;;;0.90;;
66966;SDS011;53900;51.468;-2.586;2022-07-03T03:15:39;4.82;;;1.05;;
66966;SDS011;53900;51.468;-2.586;2022-07-03T03:18:21;2.90;;;0.93;;
66966;SDS011;53900;51.468;-2.586;2022-07-03T03:20:48;7.20;;;1.00;;
66966;SDS011;53900;51.468;-2.586;2022-07-03T03:26:01;2.40;;;1.00;;
66966;SDS011;53900;51.468;-2.586;2022-07-03T03:28:26;2.15;;;0.70;;
66966;SDS011;53900;51.468;-2.586;2022-07-03T03:30:52;4.10;;;0.90;;
66966;SDS011;53900;51.468;-2.586;2022-07-03T03:33:17;2.63;;;0.70;;
66966;SDS011;53900;51.468;-2.586;2022-07-03T03:35:44;3.05;;;0.82;;
66966;SDS011;53900;51.468;-2.586;2022-07-03T03:38:09;3.20;;;0.82;;
66966;SDS011;53900;51.468;-2.586;2022-07-03T03:40:35;4.63;;;1.10;;
66966;SDS011;53900;51.468;-2.586;2022-07-03T03:43:01;1.63;;;0.70;;
66966;SDS011;53900;51.468;-2.586;2022-07-03T03:45:27;4.97;;;0.88;;
66966;SDS011;53900;51.468;-2.586;2022-07-03T03:47:52;3.53;;;0.90;;
66966;SDS011;53900;51.468;-2.586;2022-07-03T03:50:18;1.70;;;0.90;;
66966;SDS011;53900;51.468;-2.586;2022-07-03T03:52:43;3.10;;;1.05;;
66966;SDS011;53900;51.468;-2.586;2022-07-03T03:55:09;4.45;;;0.82;;
66966;SDS011;53900;51.468;-2.586;2022-07-03T03:57:35;2.70;;;1.08;;
66966;SDS011;53900;51.468;-2.586;2022-07-03T04:00:00;3.63;;;0.95;;
66966;SDS011;53900;51.468;-2.586;2022-07-03T04:02:26;3.83;;;1.00;;
66966;SDS011;53900;51.468;-2.586;2022-07-03T04:04:52;4.07;;;1.83;;
66966;SDS011;53900;51.468;-2.586;2022-07-03T04:07:17;4.32;;;0.80;;
66966;SDS011;53900;51.468;-2.586;2022-07-03T04:09:43;2.53;;;0.88;;
66966;SDS011;53900;51.468;-2.586;2022-07-03T04:12:09;2.97;;;0.95;;
66966;SDS011;53900;51.468;-2.586;2022-07-03T04:14:35;1.83;;;0.80;;
66966;SDS011;53900;51.468;-2.586;2022-07-03T04:17:00;2.85;;;0.70;;
66966;SDS011;53900;51.468;-2.586;2022-07-03T04:19:26;3.92;;;0.90;;
66966;SDS011;53900;51.468;-2.586;2022-07-03T04:21:51;2.90;;;0.95;;
66966;SDS011;53900;51.468;-2.586;2022-07-03T04:24:17;3.30;;;0.90;;
66966;SDS011;53900;51.468;-2.586;2022-07-03T04:26:42;1.30;;;0.68;;
66966;SDS011;53900;51.468;-2.586;2022-07-03T04:29:08;1.83;;;0.80;;
66966;SDS011;53900;51.468;-2.586;2022-07-03T04:31:33;5.18;;;0.85;;
66966;SDS011;53900;51.468;-2.586;2022-07-03T04:33:58;3.72;;;0.93;;
66966;SDS011;53900;51.468;-2.586;2022-07-03T04:36:24;1.23;;;0.88;;
66966;SDS011;53900;51.468;-2.586;2022-07-03T04:38:49;3.25;;;0.77;;
66966;SDS011;53900;51.468;-2.586;2022-07-03T04:41:14;3.55;;;0.80;;
66966;SDS011;53900;51.468;-2.586;2022-07-03T04:43:40;3.70;;;0.73;;
66966;SDS011;53900;51.468;-2.586;2022-07-03T04:46:05;4.80;;;0.70;;
66966;SDS011;53900;51.468;-2.586;2022-07-03T04:48:31;7.78;;;1.10;;
66966;SDS011;53900;51.468;-2.586;2022-07-03T04:50:56;3.40;;;0.80;;
66966;SDS011;53900;51.468;-2.586;2022-07-03T04:53:22;6.65;;;1.13;;
66966;SDS011;53900;51.468;-2.586;2022-07-03T04:55:47;6.30;;;1.00;;
66966;SDS011;53900;51.468;-2.586;2022-07-03T04:58:13;3.72;;;1.00;;
66966;SDS011;53900;51.468;-2.586;2022-07-03T05:00:38;3.95;;;1.02;;
66966;SDS011;53900;51.468;-2.586;2022-07-03T05:03:05;2.97;;;0.90;;
66966;SDS011;53900;51.468;-2.586;2022-07-03T05:05:31;3.25;;;1.10;;
66966;SDS011;53900;51.468;-2.586;2022-07-03T05:07:58;10.45;;;1.10;;
66966;SDS011;53900;51.468;-2.586;2022-07-03T05:10:24;2.30;;;0.90;;
66966;SDS011;53900;51.468;-2.586;2022-07-03T05:12:49;5.00;;;1.00;;
66966;SDS011;53900;51.468;-2.586;2022-07-03T05:15:15;2.70;;;1.10;;
66966;SDS011;53900;51.468;-2.586;2022-07-03T05:17:40;2.63;;;0.77;;
66966;SDS011;53900;51.468;-2.586;2022-07-03T05:20:06;4.25;;;1.00;;
66966;SDS011;53900;51.468;-2.586;2022-07-03T05:23:02;3.33;;;1.20;;
66966;SDS011;53900;51.468;-2.586;2022-07-03T05:25:29;2.35;;;0.70;;
66966;SDS011;53900;51.468;-2.586;2022-07-03T05:27:56;3.00;;;0.70;;
66966;SDS011;53900;51.468;-2.586;2022-07-03T05:30:23;3.78;;;0.98;;
66966;SDS011;53900;51.468;-2.586;2022-07-03T05:32:49;5.63;;;1.17;;
66966;SDS011;53900;51.468;-2.586;2022-07-03T05:35:15;5.78;;;1.10;;
66966;SDS011;53900;51.468;-2.586;2022-07-03T05:37:41;4.47;;;0.80;;
66966;SDS011;53900;51.468;-2.586;2022-07-03T05:40:07;3.03;;;1.05;;
66966;SDS011;53900;51.468;-2.586;2022-07-03T05:42:32;6.72;;;1.23;;
66966;SDS011;53900;51.468;-2.586;2022-07-03T05:44:58;2.67;;;0.85;;
66966;SDS011;53900;51.468;-2.586;2022-07-03T05:47:24;6.07;;;1.20;;
66966;SDS011;53900;51.468;-2.586;2022-07-03T05:49:50;7.20;;;1.25;;
66966;SDS011;53900;51.468;-2.586;2022-07-03T05:52:15;3.30;;;0.98;;
66966;SDS011;53900;51.468;-2.586;2022-07-03T05:54:41;6.32;;;1.58;;
66966;SDS011;53900;51.468;-2.586;2022-07-03T05:57:07;9.43;;;2.80;;
66966;SDS011;53900;51.468;-2.586;2022-07-03T05:59:32;14.02;;;3.30;;
66966;SDS011;53900;51.468;-2.586;2022-07-03T06:01:57;17.60;;;8.77;;
66966;SDS011;53900;51.468;-2.586;2022-07-03T06:04:23;7.30;;;3.47;;
66966;SDS011;53900;51.468;-2.586;2022-07-03T06:06:48;9.95;;;3.97;;
66966;SDS011;53900;51.468;-2.586;2022-07-03T06:09:14;5.10;;;2.45;;
66966;SDS011;53900;51.468;-2.586;2022-07-03T06:11:39;10.63;;;1.30;;
66966;SDS011;53900;51.468;-2.586;2022-07-03T06:14:04;3.88;;;1.00;;
66966;SDS011;53900;51.468;-2.586;2022-07-03T06:16:30;5.68;;;1.35;;
66966;SDS011;53900;51.468;-2.586;2022-07-03T06:18:55;4.13;;;1.23;;
66966;SDS011;53900;51.468;-2.586;2022-07-03T06:21:21;3.75;;;0.90;;
66966;SDS011;53900;51.468;-2.586;2022-07-03T06:23:46;4.35;;;1.20;;
66966;SDS011;53900;51.468;-2.586;2022-07-03T06:26:12;4.38;;;1.30;;
66966;SDS011;53900;51.468;-2.586;2022-07-03T06:28:38;4.63;;;1.17;;
66966;SDS011;53900;51.468;-2.586;2022-07-03T06:31:03;6.55;;;2.15;;
66966;SDS011;53900;51.468;-2.586;2022-07-03T06:33:29;5.68;;;1.05;;
66966;SDS011;53900;51.468;-2.586;2022-07-03T06:35:54;7.22;;;1.50;;
66966;SDS011;53900;51.468;-2.586;2022-07-03T06:38:19;3.80;;;1.05;;
66966;SDS011;53900;51.468;-2.586;2022-07-03T06:40:45;3.42;;;1.17;;
66966;SDS011;53900;51.468;-2.586;2022-07-03T06:43:10;8.27;;;1.75;;
66966;SDS011;53900;51.468;-2.586;2022-07-03T06:45:35;4.30;;;1.27;;
66966;SDS011;53900;51.468;-2.586;2022-07-03T06:48:01;4.10;;;1.20;;
66966;SDS011;53900;51.468;-2.586;2022-07-03T06:50:26;7.63;;;1.60;;
66966;SDS011;53900;51.468;-2.586;2022-07-03T06:52:52;8.13;;;1.38;;
66966;SDS011;53900;51.468;-2.586;2022-07-03T06:55:17;7.25;;;1.70;;
66966;SDS011;53900;51.468;-2.586;2022-07-03T06:57:43;5.32;;;1.58;;
66966;SDS011;53900;51.468;-2.586;2022-07-03T07:00:08;11.10;;;2.22;;
66966;SDS011;53900;51.468;-2.586;2022-07-03T07:02:34;6.88;;;1.80;;
66966;SDS011;53900;51.468;-2.586;2022-07-03T07:04:59;11.95;;;2.38;;
66966;SDS011;53900;51.468;-2.586;2022-07-03T07:07:25;5.60;;;1.75;;
66966;SDS011;53900;51.468;-2.586;2022-07-03T07:09:50;6.15;;;1.80;;
66966;SDS011;53900;51.468;-2.586;2022-07-03T07:12:16;5.50;;;2.42;;
66966;SDS011;53900;51.468;-2.586;2022-07-03T07:14:42;10.32;;;2.00;;
66966;SDS011;53900;51.468;-2.586;2022-07-03T07:17:08;10.50;;;2.10;;
66966;SDS011;53900;51.468;-2.586;2022-07-03T07:19:33;14.50;;;2.00;;
66966;SDS011;53900;51.468;-2.586;2022-07-03T07:21:59;6.50;;;1.48;;
66966;SDS011;53900;51.468;-2.586;2022-07-03T07:24:26;9.52;;;2.08;;
66966;SDS011;53900;51.468;-2.586;2022-07-03T07:26:54;9.63;;;1.83;;
66966;SDS011;53900;51.468;-2.586;2022-07-03T07:29:19;11.25;;;2.33;;
66966;SDS011;53900;51.468;-2.586;2022-07-03T07:31:45;9.63;;;2.00;;
66966;SDS011;53900;51.468;-2.586;2022-07-03T07:34:10;7.03;;;1.75;;
66966;SDS011;53900;51.468;-2.586;2022-07-03T07:36:36;9.43;;;1.90;;
66966;SDS011;53900;51.468;-2.586;2022-07-03T07:39:02;8.95;;;1.65;;
66966;SDS011;53900;51.468;-2.586;2022-07-03T07:41:27;8.15;;;2.08;;
66966;SDS011;53900;51.468;-2.586;2022-07-03T07:43:53;6.88;;;2.08;;
66966;SDS011;53900;51.468;-2.586;2022-07-03T07:46:18;6.72;;;1.83;;
66966;SDS011;53900;51.468;-2.586;2022-07-03T07:48:44;11.98;;;2.17;;
66966;SDS011;53900;51.468;-2.586;2022-07-03T07:51:10;13.65;;;3.58;;
66966;SDS011;53900;51.468;-2.586;2022-07-03T07:53:35;9.70;;;2.40;;
66966;SDS011;53900;51.468;-2.586;2022-07-03T07:56:01;14.25;;;1.92;;
66966;SDS011;53900;51.468;-2.586;2022-07-03T07:58:26;6.00;;;2.15;;
66966;SDS011;53900;51.468;-2.586;2022-07-03T08:00:52;5.88;;;1.77;;
66966;SDS011;53900;51.468;-2.586;2022-07-03T08:03:36;12.05;;;2.70;;
66966;SDS011;53900;51.468;-2.586;2022-07-03T08:06:20;9.05;;;2.30;;
66966;SDS011;53900;51.468;-2.586;2022-07-03T08:08:45;8.80;;;2.38;;
66966;SDS011;53900;51.468;-2.586;2022-07-03T08:11:11;10.52;;;2.33;;
66966;SDS011;53900;51.468;-2.586;2022-07-03T08:13:36;8.80;;;2.00;;
66966;SDS011;53900;51.468;-2.586;2022-07-03T08:16:01;5.82;;;1.60;;
66966;SDS011;53900;51.468;-2.586;2022-07-03T08:18:27;4.88;;;1.85;;
66966;SDS011;53900;51.468;-2.586;2022-07-03T08:20:53;8.43;;;2.03;;
66966;SDS011;53900;51.468;-2.586;2022-07-03T08:23:18;5.93;;;1.88;;
66966;SDS011;53900;51.468;-2.586;2022-07-03T08:25:44;7.55;;;2.40;;
66966;SDS011;53900;51.468;-2.586;2022-07-03T08:28:09;8.27;;;2.47;;
66966;SDS011;53900;51.468;-2.586;2022-07-03T08:30:34;11.95;;;2.63;;
66966;SDS011;53900;51.468;-2.586;2022-07-03T08:33:00;4.18;;;1.63;;
66966;SDS011;53900;51.468;-2.586;2022-07-03T08:35:26;6.88;;;1.90;;
66966;SDS011;53900;51.468;-2.586;2022-07-03T08:37:52;7.95;;;1.85;;
66966;SDS011;53900;51.468;-2.586;2022-07-03T08:40:18;5.95;;;1.85;;
66966;SDS011;53900;51.468;-2.586;2022-07-03T08:42:54;10.63;;;2.42;;
66966;SDS011;53900;51.468;-2.586;2022-07-03T08:45:22;7.10;;;1.90;;
66966;SDS011;53900;51.468;-2.586;2022-07-03T08:47:48;10.38;;;2.20;;
66966;SDS011;53900;51.468;-2.586;2022-07-03T08:50:15;7.18;;;2.03;;
66966;SDS011;53900;51.468;-2.586;2022-07-03T08:52:43;7.10;;;2.05;;
66966;SDS011;53900;51.468;-2.586;2022-07-03T08:55:09;6.50;;;2.15;;
66966;SDS011;53900;51.468;-2.586;2022-07-03T08:57:36;6.20;;;2.13;;
66966;SDS011;53900;51.468;-2.586;2022-07-03T09:00:04;5.95;;;1.95;;
66966;SDS011;53900;51.468;-2.586;2022-07-03T09:02:31;7.20;;;2.15;;
66966;SDS011;53900;51.468;-2.586;2022-07-03T09:04:57;5.88;;;2.00;;
66966;SDS011;53900;51.468;-2.586;2022-07-03T09:07:24;6.85;;;2.47;;
66966;SDS011;53900;51.468;-2.586;2022-07-03T09:09:51;8.68;;;2.30;;
66966;SDS011;53900;51.468;-2.586;2022-07-03T09:12:17;14.25;;;3.28;;
66966;SDS011;53900;51.468;-2.586;2022-07-03T09:14:43;6.43;;;2.00;;
66966;SDS011;53900;51.468;-2.586;2022-07-03T09:17:09;7.32;;;2.33;;
66966;SDS011;53900;51.468;-2.586;2022-07-03T09:19:38;8.57;;;1.90;;
66966;SDS011;53900;51.468;-2.586;2022-07-03T09:22:18;7.78;;;2.10;;
66966;SDS011;53900;51.468;-2.586;2022-07-03T09:24:46;7.78;;;2.83;;
66966;SDS011;53900;51.468;-2.586;2022-07-03T09:27:17;8.38;;;2.30;;
66966;SDS011;53900;51.468;-2.586;2022-07-03T09:29:50;5.07;;;2.20;;
66966;SDS011;53900;51.468;-2.586;2022-07-03T09:32:24;11.60;;;2.33;;
66966;SDS011;53900;51.468;-2.586;2022-07-03T09:35:09;6.88;;;2.00;;
66966;SDS011;53900;51.468;-2.586;2022-07-03T09:38:00;4.13;;;1.60;;
66966;SDS011;53900;51.468;-2.586;2022-07-03T09:43:13;13.48;;;1.58;;
66966;SDS011;53900;51.468;-2.586;2022-07-03T09:45:48;6.90;;;1.73;;
66966;SDS011;53900;51.468;-2.586;2022-07-03T09:48:32;7.65;;;1.95;;
66966;SDS011;53900;51.468;-2.586;2022-07-03T09:51:15;9.10;;;1.90;;
66966;SDS011;53900;51.468;-2.586;2022-07-03T09:54:00;10.98;;;2.15;;
66966;SDS011;53900;51.468;-2.586;2022-07-03T09:56:36;8.63;;;1.60;;
66966;SDS011;53900;51.468;-2.586;2022-07-03T09:59:10;7.53;;;1.65;;
66966;SDS011;53900;51.468;-2.586;2022-07-03T10:01:37;4.20;;;1.48;;
66966;SDS011;53900;51.468;-2.586;2022-07-03T10:09:19;7.20;;;1.88;;
66966;SDS011;53900;51.468;-2.586;2022-07-03T10:11:55;6.18;;;1.88;;
66966;SDS011;53900;51.468;-2.586;2022-07-03T10:14:22;11.30;;;2.00;;
66966;SDS011;53900;51.468;-2.586;2022-07-03T10:16:49;7.90;;;1.60;;
66966;SDS011;53900;51.468;-2.586;2022-07-03T10:19:19;9.65;;;1.73;;
66966;SDS011;53900;51.468;-2.586;2022-07-03T10:22:02;7.72;;;2.03;;
66966;SDS011;53900;51.468;-2.586;2022-07-03T10:24:29;7.10;;;1.85;;
66966;SDS011;53900;51.468;-2.586;2022-07-03T10:26:55;9.88;;;1.48;;
66966;SDS011;53900;51.468;-2.586;2022-07-03T10:29:22;9.02;;;2.15;;
66966;SDS011;53900;51.468;-2.586;2022-07-03T10:31:48;4.18;;;1.10;;
66966;SDS011;53900;51.468;-2.586;2022-07-03T10:34:15;4.28;;;1.40;;
66966;SDS011;53900;51.468;-2.586;2022-07-03T10:36:42;6.43;;;1.75;;
66966;SDS011;53900;51.468;-2.586;2022-07-03T10:39:08;5.15;;;1.70;;
66966;SDS011;53900;51.468;-2.586;2022-07-03T10:41:43;7.22;;;1.67;;
66966;SDS011;53900;51.468;-2.586;2022-07-03T10:44:29;5.53;;;1.42;;
66966;SDS011;53900;51.468;-2.586;2022-07-03T10:50:15;7.47;;;2.00;;
66966;SDS011;53900;51.468;-2.586;2022-07-03T10:52:42;8.57;;;1.80;;
66966;SDS011;53900;51.468;-2.586;2022-07-03T10:55:09;6.95;;;1.80;;
66966;SDS011;53900;51.468;-2.586;2022-07-03T10:57:35;10.93;;;1.92;;
66966;SDS011;53900;51.468;-2.586;2022-07-03T11:00:12;5.93;;;1.83;;
66966;SDS011;53900;51.468;-2.586;2022-07-03T11:02:45;8.63;;;1.95;;
66966;SDS011;53900;51.468;-2.586;2022-07-03T11:05:16;5.43;;;1.25;;
66966;SDS011;53900;51.468;-2.586;2022-07-03T11:21:20;7.18;;;2.08;;
66966;SDS011;53900;51.468;-2.586;2022-07-03T11:23:17;3.70;;;1.40;;
66966;SDS011;53900;51.468;-2.586;2022-07-03T11:25:49;5.20;;;1.25;;
66966;SDS011;53900;51.468;-2.586;2022-07-03T11:39:03;4.03;;;1.40;;
66966;SDS011;53900;51.468;-2.586;2022-07-03T11:44:05;2.55;;;1.27;;
66966;SDS011;53900;51.468;-2.586;2022-07-03T11:46:33;2.30;;;1.48;;
66966;SDS011;53900;51.468;-2.586;2022-07-03T11:49:04;3.17;;;1.57;;
66966;SDS011;53900;51.468;-2.586;2022-07-03T11:51:30;2.15;;;0.82;;
66966;SDS011;53900;51.468;-2.586;2022-07-03T11:53:57;1.67;;;0.65;;
66966;SDS011;53900;51.468;-2.586;2022-07-03T11:56:23;3.38;;;0.93;;
66966;SDS011;53900;51.468;-2.586;2022-07-03T11:58:49;1.23;;;0.80;;
66966;SDS011;53900;51.468;-2.586;2022-07-03T12:03:47;4.50;;;1.13;;
66966;SDS011;53900;51.468;-2.586;2022-07-03T12:06:13;4.15;;;1.00;;
66966;SDS011;53900;51.468;-2.586;2022-07-03T12:08:38;2.50;;;1.10;;
66966;SDS011;53900;51.468;-2.586;2022-07-03T12:11:07;2.00;;;1.05;;
66966;SDS011;53900;51.468;-2.586;2022-07-03T12:13:34;2.85;;;1.30;;
66966;SDS011;53900;51.468;-2.586;2022-07-03T12:18:52;2.22;;;1.08;;
66966;SDS011;53900;51.468;-2.586;2022-07-03T12:21:19;2.38;;;1.10;;
66966;SDS011;53900;51.468;-2.586;2022-07-03T12:26:29;2.65;;;1.20;;
66966;SDS011;53900;51.468;-2.586;2022-07-03T12:28:59;1.52;;;0.90;;
66966;SDS011;53900;51.468;-2.586;2022-07-03T12:31:28;3.83;;;0.88;;
66966;SDS011;53900;51.468;-2.586;2022-07-03T12:33:54;1.80;;;0.90;;
66966;SDS011;53900;51.468;-2.586;2022-07-03T12:38:49;2.22;;;0.82;;
66966;SDS011;53900;51.468;-2.586;2022-07-03T12:41:16;0.65;;;0.65;;
66966;SDS011;53900;51.468;-2.586;2022-07-03T12:43:42;1.40;;;0.80;;
66966;SDS011;53900;51.468;-2.586;2022-07-03T12:46:27;5.80;;;0.90;;
66966;SDS011;53900;51.468;-2.586;2022-07-03T12:49:08;1.70;;;0.60;;
66966;SDS011;53900;51.468;-2.586;2022-07-03T12:51:36;7.90;;;1.45;;
66966;SDS011;53900;51.468;-2.586;2022-07-03T12:54:03;6.07;;;0.70;;
66966;SDS011;53900;51.468;-2.586;2022-07-03T12:56:28;1.00;;;0.60;;
66966;SDS011;53900;51.468;-2.586;2022-07-03T12:58:54;2.10;;;0.80;;
66966;SDS011;53900;51.468;-2.586;2022-07-03T13:01:37;2.47;;;0.60;;
66966;SDS011;53900;51.468;-2.586;2022-07-03T13:04:03;3.63;;;0.88;;
66966;SDS011;53900;51.468;-2.586;2022-07-03T13:06:29;4.32;;;0.80;;
66966;SDS011;53900;51.468;-2.586;2022-07-03T13:08:56;0.88;;;0.68;;
66966;SDS011;53900;51.468;-2.586;2022-07-03T13:19:13;0.98;;;0.55;;
66966;SDS011;53900;51.468;-2.586;2022-07-03T13:21:39;1.08;;;0.60;;
66966;SDS011;53900;51.468;-2.586;2022-07-03T13:24:06;1.08;;;0.80;;
66966;SDS011;53900;51.468;-2.586;2022-07-03T13:26:32;1.25;;;0.70;;
66966;SDS011;53900;51.468;-2.586;2022-07-03T13:28:57;1.17;;;0.70;;
66966;SDS011;53900;51.468;-2.586;2022-07-03T13:31:23;1.48;;;0.60;;
66966;SDS011;53900;51.468;-2.586;2022-07-03T13:33:48;1.50;;;0.73;;
66966;SDS011;53900;51.468;-2.586;2022-07-03T13:36:14;2.28;;;0.82;;
66966;SDS011;53900;51.468;-2.586;2022-07-03T13:38:42;1.73;;;0.60;;
66966;SDS011;53900;51.468;-2.586;2022-07-03T13:41:08;1.00;;;0.70;;
66966;SDS011;53900;51.468;-2.586;2022-07-03T13:43:33;0.77;;;0.60;;
66966;SDS011;53900;51.468;-2.586;2022-07-03T13:45:59;1.95;;;0.90;;
66966;SDS011;53900;51.468;-2.586;2022-07-03T13:48:24;2.15;;;0.63;;
66966;SDS011;53900;51.468;-2.586;2022-07-03T13:50:49;2.35;;;0.75;;
66966;SDS011;53900;51.468;-2.586;2022-07-03T13:53:15;3.25;;;0.70;;
66966;SDS011;53900;51.468;-2.586;2022-07-03T13:55:40;3.13;;;0.88;;
66966;SDS011;53900;51.468;-2.586;2022-07-03T13:58:06;2.45;;;0.80;;
66966;SDS011;53900;51.468;-2.586;2022-07-03T14:00:33;0.98;;;0.85;;
66966;SDS011;53900;51.468;-2.586;2022-07-03T14:02:59;3.65;;;0.90;;
66966;SDS011;53900;51.468;-2.586;2022-07-03T14:05:25;0.60;;;0.60;;
66966;SDS011;53900;51.468;-2.586;2022-07-03T14:07:51;4.68;;;0.90;;
66966;SDS011;53900;51.468;-2.586;2022-07-03T14:10:16;3.13;;;0.90;;
66966;SDS011;53900;51.468;-2.586;2022-07-03T14:12:41;1.92;;;0.80;;
66966;SDS011;53900;51.468;-2.586;2022-07-03T14:15:07;1.90;;;0.82;;
66966;SDS011;53900;51.468;-2.586;2022-07-03T14:17:33;3.92;;;1.00;;
66966;SDS011;53900;51.468;-2.586;2022-07-03T14:19:58;1.33;;;0.70;;
66966;SDS011;53900;51.468;-2.586;2022-07-03T14:22:24;1.58;;;0.90;;
66966;SDS011;53900;51.468;-2.586;2022-07-03T14:24:49;2.95;;;1.10;;
66966;SDS011;53900;51.468;-2.586;2022-07-03T14:27:14;2.13;;;0.90;;
66966;SDS011;53900;51.468;-2.586;2022-07-03T14:29:58;2.45;;;1.08;;
66966;SDS011;53900;51.468;-2.586;2022-07-03T14:32:42;5.15;;;1.30;;
66966;SDS011;53900;51.468;-2.586;2022-07-03T14:35:08;3.47;;;0.98;;
66966;SDS011;53900;51.468;-2.586;2022-07-03T14:37:33;2.10;;;0.90;;
66966;SDS011;53900;51.468;-2.586;2022-07-03T14:39:59;2.25;;;0.70;;
66966;SDS011;53900;51.468;-2.586;2022-07-03T14:42:24;2.53;;;1.00;;
66966;SDS011;53900;51.468;-2.586;2022-07-03T14:44:50;1.55;;;0.80;;
66966;SDS011;53900;51.468;-2.586;2022-07-03T14:47:15;2.47;;;0.90;;
66966;SDS011;53900;51.468;-2.586;2022-07-03T14:49:41;3.33;;;1.00;;
66966;SDS011;53900;51.468;-2.586;2022-07-03T14:52:07;2.25;;;1.00;;
66966;SDS011;53900;51.468;-2.586;2022-07-03T14:54:33;4.78;;;1.08;;
66966;SDS011;53900;51.468;-2.586;2022-07-03T14:57:00;4.60;;;1.02;;
66966;SDS011;53900;51.468;-2.586;2022-07-03T15:03:16;1.85;;;0.85;;
66966;SDS011;53900;51.468;-2.586;2022-07-03T15:05:18;1.95;;;0.88;;
66966;SDS011;53900;51.468;-2.586;2022-07-03T15:07:46;2.05;;;1.05;;
66966;SDS011;53900;51.468;-2.586;2022-07-03T15:10:28;3.97;;;0.95;;
66966;SDS011;53900;51.468;-2.586;2022-07-03T15:12:57;2.10;;;0.90;;
66966;SDS011;53900;51.468;-2.586;2022-07-03T15:15:25;2.70;;;0.95;;
66966;SDS011;53900;51.468;-2.586;2022-07-03T15:17:51;1.70;;;0.95;;
66966;SDS011;53900;51.468;-2.586;2022-07-03T15:20:18;2.17;;;0.90;;
66966;SDS011;53900;51.468;-2.586;2022-07-03T15:22:44;3.13;;;1.00;;
66966;SDS011;53900;51.468;-2.586;2022-07-03T15:25:11;3.65;;;1.15;;
66966;SDS011;53900;51.468;-2.586;2022-07-03T15:27:39;2.53;;;1.10;;
66966;SDS011;53900;51.468;-2.586;2022-07-03T15:30:05;4.40;;;1.35;;
66966;SDS011;53900;51.468;-2.586;2022-07-03T15:32:36;4.57;;;1.58;;
66966;SDS011;53900;51.468;-2.586;2022-07-03T15:35:01;4.35;;;1.45;;
66966;SDS011;53900;51.468;-2.586;2022-07-03T15:40:33;5.32;;;1.65;;
66966;SDS011;53900;51.468;-2.586;2022-07-03T15:45:54;3.70;;;1.10;;
66966;SDS011;53900;51.468;-2.586;2022-07-03T15:53:49;3.35;;;1.00;;
66966;SDS011;53900;51.468;-2.586;2022-07-03T15:56:16;4.20;;;1.10;;
66966;SDS011;53900;51.468;-2.586;2022-07-03T15:58:47;4.18;;;1.60;;
66966;SDS011;53900;51.468;-2.586;2022-07-03T16:01:15;4.28;;;1.25;;
66966;SDS011;53900;51.468;-2.586;2022-07-03T16:04:02;4.10;;;1.27;;
66966;SDS011;53900;51.468;-2.586;2022-07-03T16:06:36;6.72;;;1.60;;
66966;SDS011;53900;51.468;-2.586;2022-07-03T16:09:03;5.72;;;1.40;;
66966;SDS011;53900;51.468;-2.586;2022-07-03T16:11:29;7.50;;;1.50;;
66966;SDS011;53900;51.468;-2.586;2022-07-03T16:13:54;6.60;;;1.85;;